Terminal Aerodrome Forecast
Issued by NWS Paducah, KY

Home | Current Version | Previous Version | Text Only | Print | Product List | Glossary On
Versions: 1 2 3 4 5 6 7 8 9 10 11 12 13 14 15
000
FTUS43 KPAH 180227 AAB
TAFPAH
TAF AMD
KPAH 180227Z 1802/1824 18003KT P6SM OVC009
      TEMPO 1804/1808 5SM BR OVC006
     FM180800 19003KT 2SM -DZ BR OVC003
     FM181400 23006KT 4SM BR SCT005 OVC012
     FM181900 23008KT P6SM OVC025=

USA.gov is the U.S. government's official web portal to all federal, state and local government web resources and services.